Kings Creek, South Carolina
Current Conditions -  °F | °C
As of 4:15 AM on Saturday 29 Nov 2014 (Local Time) from KEHO Reporting Station
Clear Clear  
Wind Chill: 27°   Ceiling: Unl
Heat Index: 32°   Visibility: 10mi
Dew Point: 24°   Wind: 5mph
Humidity: 73%   Direction: 150°SSE
Pressure: 30.25"   Gusts: NA
Location:  35.1147°N, 81.4908°W
Report Text: KEHO 290915Z AUTO 15004KT 10SM CLR 00/M05 A3025 RMK AO2 T10021046
Loading
Personal Weather Stations






























Interactive Weather Map New forecast layout! Learn more

10-Day Weather Forecast

Advertisements
Track Severe Weather on mobile